sensor_id;sensor_type;location;lat;lon;timestamp;temperature;humidity
43043;DHT22;28667;50.758;6.096;2023-01-24T00:01:01;0.80;99.90
43043;DHT22;28667;50.758;6.096;2023-01-24T00:03:28;0.80;99.90
43043;DHT22;28667;50.758;6.096;2023-01-24T00:05:54;0.80;99.90
43043;DHT22;28667;50.758;6.096;2023-01-24T00:08:20;0.80;99.90
43043;DHT22;28667;50.758;6.096;2023-01-24T00:10:57;0.80;99.90
43043;DHT22;28667;50.758;6.096;2023-01-24T00:13:23;0.80;99.90
43043;DHT22;28667;50.758;6.096;2023-01-24T00:15:49;0.80;99.90
43043;DHT22;28667;50.758;6.096;2023-01-24T00:18:15;0.80;99.90
43043;DHT22;28667;50.758;6.096;2023-01-24T00:20:43;0.80;99.90
43043;DHT22;28667;50.758;6.096;2023-01-24T00:23:09;0.90;99.90
43043;DHT22;28667;50.758;6.096;2023-01-24T00:25:34;0.80;99.90
43043;DHT22;28667;50.758;6.096;2023-01-24T00:28:00;0.80;99.90
43043;DHT22;28667;50.758;6.096;2023-01-24T00:30:26;0.80;99.90
43043;DHT22;28667;50.758;6.096;2023-01-24T00:32:51;0.80;99.90
43043;DHT22;28667;50.758;6.096;2023-01-24T00:35:17;0.80;99.90
43043;DHT22;28667;50.758;6.096;2023-01-24T00:37:43;0.80;99.90
43043;DHT22;28667;50.758;6.096;2023-01-24T00:40:09;0.80;99.90
43043;DHT22;28667;50.758;6.096;2023-01-24T00:42:35;0.80;99.90
43043;DHT22;28667;50.758;6.096;2023-01-24T00:45:01;0.70;99.90
43043;DHT22;28667;50.758;6.096;2023-01-24T00:47:26;0.80;99.90
43043;DHT22;28667;50.758;6.096;2023-01-24T00:49:52;0.80;99.90
43043;DHT22;28667;50.758;6.096;2023-01-24T00:52:18;0.80;99.90
43043;DHT22;28667;50.758;6.096;2023-01-24T00:54:44;0.80;99.90
43043;DHT22;28667;50.758;6.096;2023-01-24T00:57:09;0.80;99.90
43043;DHT22;28667;50.758;6.096;2023-01-24T00:59:35;0.80;99.90
43043;DHT22;28667;50.758;6.096;2023-01-24T01:02:03;0.80;99.90
43043;DHT22;28667;50.758;6.096;2023-01-24T01:04:29;0.80;99.90
43043;DHT22;28667;50.758;6.096;2023-01-24T01:06:55;0.80;99.90
43043;DHT22;28667;50.758;6.096;2023-01-24T01:09:20;0.80;99.90
43043;DHT22;28667;50.758;6.096;2023-01-24T01:11:46;0.80;99.90
43043;DHT22;28667;50.758;6.096;2023-01-24T01:14:12;0.80;99.90
43043;DHT22;28667;50.758;6.096;2023-01-24T01:16:37;0.80;99.90
43043;DHT22;28667;50.758;6.096;2023-01-24T01:19:04;0.80;99.90
43043;DHT22;28667;50.758;6.096;2023-01-24T01:21:31;0.80;99.90
43043;DHT22;28667;50.758;6.096;2023-01-24T01:23:57;0.80;99.90
43043;DHT22;28667;50.758;6.096;2023-01-24T01:26:23;0.80;99.90
43043;DHT22;28667;50.758;6.096;2023-01-24T01:28:48;0.80;99.90
43043;DHT22;28667;50.758;6.096;2023-01-24T01:31:15;0.80;99.90
43043;DHT22;28667;50.758;6.096;2023-01-24T01:33:42;0.80;99.90
43043;DHT22;28667;50.758;6.096;2023-01-24T01:36:09;0.80;99.90
43043;DHT22;28667;50.758;6.096;2023-01-24T01:38:35;0.80;99.90
43043;DHT22;28667;50.758;6.096;2023-01-24T01:41:01;0.80;99.90
43043;DHT22;28667;50.758;6.096;2023-01-24T01:43:28;0.80;99.90
43043;DHT22;28667;50.758;6.096;2023-01-24T01:46:19;0.80;99.90
43043;DHT22;28667;50.758;6.096;2023-01-24T01:48:48;0.80;99.90
43043;DHT22;28667;50.758;6.096;2023-01-24T01:54:11;0.80;99.90
43043;DHT22;28667;50.758;6.096;2023-01-24T01:56:59;0.80;99.90
43043;DHT22;28667;50.758;6.096;2023-01-24T01:59:38;0.80;99.90
43043;DHT22;28667;50.758;6.096;2023-01-24T02:02:07;0.80;99.90
43043;DHT22;28667;50.758;6.096;2023-01-24T02:04:39;0.80;99.90
43043;DHT22;28667;50.758;6.096;2023-01-24T02:07:14;0.80;99.90
43043;DHT22;28667;50.758;6.096;2023-01-24T02:09:42;0.80;99.90
43043;DHT22;28667;50.758;6.096;2023-01-24T02:12:24;0.80;99.90
43043;DHT22;28667;50.758;6.096;2023-01-24T02:14:56;0.80;99.90
43043;DHT22;28667;50.758;6.096;2023-01-24T02:17:41;0.80;99.90
43043;DHT22;28667;50.758;6.096;2023-01-24T02:20:29;0.80;99.90
43043;DHT22;28667;50.758;6.096;2023-01-24T02:28:01;0.80;99.90
43043;DHT22;28667;50.758;6.096;2023-01-24T02:30:28;0.80;99.90
43043;DHT22;28667;50.758;6.096;2023-01-24T02:32:54;0.90;99.90
43043;DHT22;28667;50.758;6.096;2023-01-24T02:35:31;0.90;99.90
43043;DHT22;28667;50.758;6.096;2023-01-24T02:38:04;0.80;99.90
43043;DHT22;28667;50.758;6.096;2023-01-24T02:40:31;0.80;99.90
43043;DHT22;28667;50.758;6.096;2023-01-24T02:43:00;0.80;99.90
43043;DHT22;28667;50.758;6.096;2023-01-24T02:45:30;0.80;99.90
43043;DHT22;28667;50.758;6.096;2023-01-24T02:47:58;0.80;99.90
43043;DHT22;28667;50.758;6.096;2023-01-24T02:50:27;0.80;99.90
43043;DHT22;28667;50.758;6.096;2023-01-24T02:52:53;0.80;99.90
43043;DHT22;28667;50.758;6.096;2023-01-24T02:55:38;0.80;99.90
43043;DHT22;28667;50.758;6.096;2023-01-24T02:58:29;0.80;99.90
43043;DHT22;28667;50.758;6.096;2023-01-24T03:00:54;0.80;99.90
43043;DHT22;28667;50.758;6.096;2023-01-24T03:03:21;0.80;99.90
43043;DHT22;28667;50.758;6.096;2023-01-24T03:05:46;0.80;99.90
43043;DHT22;28667;50.758;6.096;2023-01-24T03:08:27;0.80;99.90
43043;DHT22;28667;50.758;6.096;2023-01-24T03:10:56;0.80;99.90
43043;DHT22;28667;50.758;6.096;2023-01-24T03:13:24;0.80;99.90
43043;DHT22;28667;50.758;6.096;2023-01-24T03:16:11;0.80;99.90
43043;DHT22;28667;50.758;6.096;2023-01-24T03:18:55;0.80;99.90
43043;DHT22;28667;50.758;6.096;2023-01-24T03:21:40;0.80;99.90
43043;DHT22;28667;50.758;6.096;2023-01-24T03:24:24;0.80;99.90
43043;DHT22;28667;50.758;6.096;2023-01-24T03:27:09;0.80;99.90
43043;DHT22;28667;50.758;6.096;2023-01-24T03:29:55;0.80;99.90
43043;DHT22;28667;50.758;6.096;2023-01-24T03:32:40;0.80;99.90
43043;DHT22;28667;50.758;6.096;2023-01-24T03:35:25;0.80;99.90
43043;DHT22;28667;50.758;6.096;2023-01-24T03:37:50;0.80;99.90
43043;DHT22;28667;50.758;6.096;2023-01-24T03:40:35;0.80;99.90
43043;DHT22;28667;50.758;6.096;2023-01-24T03:43:02;0.80;99.90
43043;DHT22;28667;50.758;6.096;2023-01-24T03:45:34;0.80;99.90
43043;DHT22;28667;50.758;6.096;2023-01-24T03:48:03;0.80;99.90
43043;DHT22;28667;50.758;6.096;2023-01-24T03:50:33;0.80;99.90
43043;DHT22;28667;50.758;6.096;2023-01-24T03:53:19;0.70;99.90
43043;DHT22;28667;50.758;6.096;2023-01-24T03:55:55;0.80;99.90
43043;DHT22;28667;50.758;6.096;2023-01-24T03:58:23;0.80;99.90
43043;DHT22;28667;50.758;6.096;2023-01-24T04:00:49;0.70;99.90
43043;DHT22;28667;50.758;6.096;2023-01-24T04:03:44;0.80;99.90
43043;DHT22;28667;50.758;6.096;2023-01-24T04:06:10;0.70;99.90
43043;DHT22;28667;50.758;6.096;2023-01-24T04:08:36;0.70;99.90
43043;DHT22;28667;50.758;6.096;2023-01-24T04:11:02;0.70;99.90
43043;DHT22;28667;50.758;6.096;2023-01-24T04:13:29;0.70;99.90
43043;DHT22;28667;50.758;6.096;2023-01-24T04:15:57;0.70;99.90
43043;DHT22;28667;50.758;6.096;2023-01-24T04:18:38;0.70;99.90
43043;DHT22;28667;50.758;6.096;2023-01-24T04:21:05;0.70;99.90
43043;DHT22;28667;50.758;6.096;2023-01-24T04:23:32;0.70;99.90
43043;DHT22;28667;50.758;6.096;2023-01-24T04:25:58;0.70;99.90
43043;DHT22;28667;50.758;6.096;2023-01-24T04:28:28;0.70;99.90
43043;DHT22;28667;50.758;6.096;2023-01-24T04:30:59;0.70;99.90
43043;DHT22;28667;50.758;6.096;2023-01-24T04:33:42;0.70;99.90
43043;DHT22;28667;50.758;6.096;2023-01-24T04:36:07;0.70;99.90
43043;DHT22;28667;50.758;6.096;2023-01-24T04:38:36;0.70;99.90
43043;DHT22;28667;50.758;6.096;2023-01-24T04:41:06;0.70;99.90
43043;DHT22;28667;50.758;6.096;2023-01-24T04:43:40;0.70;99.90
43043;DHT22;28667;50.758;6.096;2023-01-24T04:46:06;0.70;99.90
43043;DHT22;28667;50.758;6.096;2023-01-24T04:48:58;0.60;99.90
43043;DHT22;28667;50.758;6.096;2023-01-24T04:51:32;0.60;99.90
43043;DHT22;28667;50.758;6.096;2023-01-24T04:54:00;0.60;99.90
43043;DHT22;28667;50.758;6.096;2023-01-24T04:56:28;0.60;99.90
43043;DHT22;28667;50.758;6.096;2023-01-24T04:58:57;0.60;99.90
43043;DHT22;28667;50.758;6.096;2023-01-24T05:01:22;0.60;99.90
43043;DHT22;28667;50.758;6.096;2023-01-24T05:04:01;0.60;99.90
43043;DHT22;28667;50.758;6.096;2023-01-24T05:06:30;0.60;99.90
43043;DHT22;28667;50.758;6.096;2023-01-24T05:08:57;0.60;99.90
43043;DHT22;28667;50.758;6.096;2023-01-24T05:11:30;0.60;99.90
43043;DHT22;28667;50.758;6.096;2023-01-24T05:14:00;0.60;99.90
43043;DHT22;28667;50.758;6.096;2023-01-24T05:16:26;0.60;99.90
43043;DHT22;28667;50.758;6.096;2023-01-24T05:18:52;0.60;99.90
43043;DHT22;28667;50.758;6.096;2023-01-24T05:21:19;0.60;99.90
43043;DHT22;28667;50.758;6.096;2023-01-24T05:23:51;0.60;99.90
43043;DHT22;28667;50.758;6.096;2023-01-24T05:26:20;0.60;99.90
43043;DHT22;28667;50.758;6.096;2023-01-24T05:28:48;0.60;99.90
43043;DHT22;28667;50.758;6.096;2023-01-24T05:31:14;0.60;99.90
43043;DHT22;28667;50.758;6.096;2023-01-24T05:33:41;0.60;99.90
43043;DHT22;28667;50.758;6.096;2023-01-24T05:36:19;0.60;99.90
43043;DHT22;28667;50.758;6.096;2023-01-24T05:38:47;0.60;99.90
43043;DHT22;28667;50.758;6.096;2023-01-24T05:41:15;0.60;99.90
43043;DHT22;28667;50.758;6.096;2023-01-24T05:43:43;0.60;99.90
43043;DHT22;28667;50.758;6.096;2023-01-24T05:46:14;0.60;99.90
43043;DHT22;28667;50.758;6.096;2023-01-24T05:48:47;0.60;99.90
43043;DHT22;28667;50.758;6.096;2023-01-24T05:51:15;0.60;99.90
43043;DHT22;28667;50.758;6.096;2023-01-24T05:53:42;0.60;99.90
43043;DHT22;28667;50.758;6.096;2023-01-24T05:56:17;0.60;99.90
43043;DHT22;28667;50.758;6.096;2023-01-24T05:58:45;0.60;99.90
43043;DHT22;28667;50.758;6.096;2023-01-24T06:01:20;0.60;99.90
43043;DHT22;28667;50.758;6.096;2023-01-24T06:03:52;0.60;99.90
43043;DHT22;28667;50.758;6.096;2023-01-24T06:06:20;0.60;99.90
43043;DHT22;28667;50.758;6.096;2023-01-24T06:08:47;0.60;99.90
43043;DHT22;28667;50.758;6.096;2023-01-24T06:11:18;0.60;99.90
43043;DHT22;28667;50.758;6.096;2023-01-24T06:13:46;0.60;99.90
43043;DHT22;28667;50.758;6.096;2023-01-24T06:16:20;0.60;99.90
43043;DHT22;28667;50.758;6.096;2023-01-24T06:18:48;0.60;99.90
43043;DHT22;28667;50.758;6.096;2023-01-24T06:23:40;0.60;99.90
43043;DHT22;28667;50.758;6.096;2023-01-24T06:26:09;0.60;99.90
43043;DHT22;28667;50.758;6.096;2023-01-24T06:28:35;0.60;99.90
43043;DHT22;28667;50.758;6.096;2023-01-24T06:37:18;0.50;99.90
43043;DHT22;28667;50.758;6.096;2023-01-24T06:39:50;0.60;99.90
43043;DHT22;28667;50.758;6.096;2023-01-24T06:42:21;0.60;99.90
43043;DHT22;28667;50.758;6.096;2023-01-24T06:44:47;0.60;99.90
43043;DHT22;28667;50.758;6.096;2023-01-24T06:47:13;0.60;99.90
43043;DHT22;28667;50.758;6.096;2023-01-24T06:49:39;0.60;99.90
43043;DHT22;28667;50.758;6.096;2023-01-24T06:52:06;0.60;99.90
43043;DHT22;28667;50.758;6.096;2023-01-24T06:54:33;0.60;99.90
43043;DHT22;28667;50.758;6.096;2023-01-24T06:56:59;0.60;99.90
43043;DHT22;28667;50.758;6.096;2023-01-24T06:59:25;0.50;99.90
43043;DHT22;28667;50.758;6.096;2023-01-24T07:01:50;0.50;99.90
43043;DHT22;28667;50.758;6.096;2023-01-24T07:04:17;0.50;99.90
43043;DHT22;28667;50.758;6.096;2023-01-24T07:06:43;0.50;99.90
43043;DHT22;28667;50.758;6.096;2023-01-24T07:09:08;0.50;99.90
43043;DHT22;28667;50.758;6.096;2023-01-24T07:11:34;0.50;99.90
43043;DHT22;28667;50.758;6.096;2023-01-24T07:14:00;0.50;99.90
43043;DHT22;28667;50.758;6.096;2023-01-24T07:16:26;0.50;99.90
43043;DHT22;28667;50.758;6.096;2023-01-24T07:18:51;0.50;99.90
43043;DHT22;28667;50.758;6.096;2023-01-24T07:21:17;0.50;99.90
43043;DHT22;28667;50.758;6.096;2023-01-24T07:23:45;0.50;99.90
43043;DHT22;28667;50.758;6.096;2023-01-24T07:26:11;0.50;99.90
43043;DHT22;28667;50.758;6.096;2023-01-24T07:28:38;0.50;99.90
43043;DHT22;28667;50.758;6.096;2023-01-24T07:31:04;0.50;99.90
43043;DHT22;28667;50.758;6.096;2023-01-24T07:33:30;0.50;99.90
43043;DHT22;28667;50.758;6.096;2023-01-24T07:35:55;0.40;99.90
43043;DHT22;28667;50.758;6.096;2023-01-24T07:38:21;0.40;99.90
43043;DHT22;28667;50.758;6.096;2023-01-24T07:40:47;0.50;99.90
43043;DHT22;28667;50.758;6.096;2023-01-24T07:43:13;0.40;99.90
43043;DHT22;28667;50.758;6.096;2023-01-24T07:45:39;0.40;99.90
43043;DHT22;28667;50.758;6.096;2023-01-24T07:48:06;0.40;99.90
43043;DHT22;28667;50.758;6.096;2023-01-24T07:50:34;0.40;99.90
43043;DHT22;28667;50.758;6.096;2023-01-24T07:53:00;0.40;99.90
43043;DHT22;28667;50.758;6.096;2023-01-24T07:55:26;0.40;99.90
43043;DHT22;28667;50.758;6.096;2023-01-24T07:57:58;0.50;99.90
43043;DHT22;28667;50.758;6.096;2023-01-24T08:00:24;0.50;99.90
43043;DHT22;28667;50.758;6.096;2023-01-24T08:02:49;0.50;99.90
43043;DHT22;28667;50.758;6.096;2023-01-24T08:05:18;0.50;99.90
43043;DHT22;28667;50.758;6.096;2023-01-24T08:07:43;0.50;99.90
43043;DHT22;28667;50.758;6.096;2023-01-24T08:10:09;0.60;99.90
43043;DHT22;28667;50.758;6.096;2023-01-24T08:12:36;0.50;99.90
43043;DHT22;28667;50.758;6.096;2023-01-24T08:15:01;0.60;99.90
43043;DHT22;28667;50.758;6.096;2023-01-24T08:17:27;0.50;99.90
43043;DHT22;28667;50.758;6.096;2023-01-24T08:19:53;0.50;99.90
43043;DHT22;28667;50.758;6.096;2023-01-24T08:22:18;0.60;99.90
43043;DHT22;28667;50.758;6.096;2023-01-24T08:24:44;0.60;99.90
43043;DHT22;28667;50.758;6.096;2023-01-24T08:27:10;0.60;99.90
43043;DHT22;28667;50.758;6.096;2023-01-24T08:29:36;0.60;99.90
43043;DHT22;28667;50.758;6.096;2023-01-24T08:32:01;0.60;99.90
43043;DHT22;28667;50.758;6.096;2023-01-24T08:34:27;0.60;99.90
43043;DHT22;28667;50.758;6.096;2023-01-24T08:36:53;0.60;99.90
43043;DHT22;28667;50.758;6.096;2023-01-24T08:39:19;0.70;99.90
43043;DHT22;28667;50.758;6.096;2023-01-24T08:41:45;1.00;99.90
43043;DHT22;28667;50.758;6.096;2023-01-24T08:44:15;1.30;99.90
43043;DHT22;28667;50.758;6.096;2023-01-24T08:46:41;1.50;99.90
43043;DHT22;28667;50.758;6.096;2023-01-24T08:49:09;1.80;99.90
43043;DHT22;28667;50.758;6.096;2023-01-24T08:51:35;1.80;99.90
43043;DHT22;28667;50.758;6.096;2023-01-24T08:54:01;1.90;99.90
43043;DHT22;28667;50.758;6.096;2023-01-24T08:56:27;1.90;99.90
43043;DHT22;28667;50.758;6.096;2023-01-24T08:58:52;1.90;99.90
43043;DHT22;28667;50.758;6.096;2023-01-24T09:01:18;1.80;99.90
43043;DHT22;28667;50.758;6.096;2023-01-24T09:03:45;1.70;99.90
43043;DHT22;28667;50.758;6.096;2023-01-24T09:06:11;1.50;99.90
43043;DHT22;28667;50.758;6.096;2023-01-24T09:08:37;1.40;99.90
43043;DHT22;28667;50.758;6.096;2023-01-24T09:11:02;1.30;99.90
43043;DHT22;28667;50.758;6.096;2023-01-24T09:13:28;1.30;99.90
43043;DHT22;28667;50.758;6.096;2023-01-24T09:15:56;1.20;99.90
43043;DHT22;28667;50.758;6.096;2023-01-24T09:18:22;1.20;99.90
43043;DHT22;28667;50.758;6.096;2023-01-24T09:20:47;1.20;99.90
43043;DHT22;28667;50.758;6.096;2023-01-24T09:23:13;1.20;99.90
43043;DHT22;28667;50.758;6.096;2023-01-24T09:25:49;1.20;99.90
43043;DHT22;28667;50.758;6.096;2023-01-24T09:28:15;1.20;99.90
43043;DHT22;28667;50.758;6.096;2023-01-24T09:30:41;1.20;99.90
43043;DHT22;28667;50.758;6.096;2023-01-24T09:33:07;1.20;99.90
43043;DHT22;28667;50.758;6.096;2023-01-24T09:35:33;1.20;99.90
43043;DHT22;28667;50.758;6.096;2023-01-24T09:37:58;1.20;99.90
43043;DHT22;28667;50.758;6.096;2023-01-24T09:40:29;1.20;99.90
43043;DHT22;28667;50.758;6.096;2023-01-24T09:43:42;1.20;99.90
43043;DHT22;28667;50.758;6.096;2023-01-24T09:49:12;1.20;99.90
43043;DHT22;28667;50.758;6.096;2023-01-24T09:51:51;1.20;99.90
43043;DHT22;28667;50.758;6.096;2023-01-24T10:00:36;1.20;99.90
43043;DHT22;28667;50.758;6.096;2023-01-24T10:03:04;1.20;99.90
43043;DHT22;28667;50.758;6.096;2023-01-24T10:05:38;1.20;99.90
43043;DHT22;28667;50.758;6.096;2023-01-24T10:08:15;1.20;99.90
43043;DHT22;28667;50.758;6.096;2023-01-24T10:10:49;1.20;99.90
43043;DHT22;28667;50.758;6.096;2023-01-24T10:16:38;1.20;99.90
43043;DHT22;28667;50.758;6.096;2023-01-24T10:22:03;1.20;99.90
43043;DHT22;28667;50.758;6.096;2023-01-24T10:24:37;1.20;99.90
43043;DHT22;28667;50.758;6.096;2023-01-24T10:27:21;1.20;99.90
43043;DHT22;28667;50.758;6.096;2023-01-24T10:29:55;1.20;99.90
43043;DHT22;28667;50.758;6.096;2023-01-24T10:32:31;1.20;99.90
43043;DHT22;28667;50.758;6.096;2023-01-24T10:35:20;1.30;99.90
43043;DHT22;28667;50.758;6.096;2023-01-24T10:37:49;1.30;99.90
43043;DHT22;28667;50.758;6.096;2023-01-24T10:40:20;1.30;99.90
43043;DHT22;28667;50.758;6.096;2023-01-24T10:42:46;1.20;99.90
43043;DHT22;28667;50.758;6.096;2023-01-24T10:45:45;1.20;99.90
43043;DHT22;28667;50.758;6.096;2023-01-24T10:48:38;1.20;99.90
43043;DHT22;28667;50.758;6.096;2023-01-24T10:51:21;1.20;99.90
43043;DHT22;28667;50.758;6.096;2023-01-24T10:53:47;1.20;99.90
43043;DHT22;28667;50.758;6.096;2023-01-24T10:56:15;1.20;99.90
43043;DHT22;28667;50.758;6.096;2023-01-24T10:58:59;1.20;99.90
43043;DHT22;28667;50.758;6.096;2023-01-24T11:01:37;1.30;99.90
43043;DHT22;28667;50.758;6.096;2023-01-24T11:04:26;1.30;99.90
43043;DHT22;28667;50.758;6.096;2023-01-24T11:06:52;1.30;99.90
43043;DHT22;28667;50.758;6.096;2023-01-24T11:09:20;1.30;99.90
43043;DHT22;28667;50.758;6.096;2023-01-24T11:11:51;1.30;99.90
43043;DHT22;28667;50.758;6.096;2023-01-24T11:14:22;1.30;99.90
43043;DHT22;28667;50.758;6.096;2023-01-24T11:16:51;1.40;99.90
43043;DHT22;28667;50.758;6.096;2023-01-24T11:19:28;1.40;99.90
43043;DHT22;28667;50.758;6.096;2023-01-24T11:21:57;1.40;99.90
43043;DHT22;28667;50.758;6.096;2023-01-24T11:24:24;1.50;99.90
43043;DHT22;28667;50.758;6.096;2023-01-24T11:27:03;1.50;99.90
43043;DHT22;28667;50.758;6.096;2023-01-24T11:29:29;1.50;99.90
43043;DHT22;28667;50.758;6.096;2023-01-24T11:32:16;1.50;99.90
43043;DHT22;28667;50.758;6.096;2023-01-24T11:40:34;1.60;99.90
43043;DHT22;28667;50.758;6.096;2023-01-24T12:05:01;1.70;99.90
43043;DHT22;28667;50.758;6.096;2023-01-24T12:07:34;1.70;99.90
43043;DHT22;28667;50.758;6.096;2023-01-24T12:10:18;1.70;99.90
43043;DHT22;28667;50.758;6.096;2023-01-24T12:12:51;1.70;99.90
43043;DHT22;28667;50.758;6.096;2023-01-24T12:15:23;1.70;99.90
43043;DHT22;28667;50.758;6.096;2023-01-24T12:25:45;1.80;99.90
43043;DHT22;28667;50.758;6.096;2023-01-24T12:28:15;1.80;99.90
43043;DHT22;28667;50.758;6.096;2023-01-24T12:30:53;1.80;99.90
43043;DHT22;28667;50.758;6.096;2023-01-24T12:36:44;1.80;99.90
43043;DHT22;28667;50.758;6.096;2023-01-24T12:39:06;1.80;99.90
43043;DHT22;28667;50.758;6.096;2023-01-24T12:41:37;1.80;99.90
43043;DHT22;28667;50.758;6.096;2023-01-24T12:44:28;1.80;99.90
43043;DHT22;28667;50.758;6.096;2023-01-24T12:53:09;1.50;99.90
43043;DHT22;28667;50.758;6.096;2023-01-24T12:55:41;1.50;99.90
43043;DHT22;28667;50.758;6.096;2023-01-24T12:58:37;1.50;99.90
43043;DHT22;28667;50.758;6.096;2023-01-24T13:01:30;1.60;99.90
43043;DHT22;28667;50.758;6.096;2023-01-24T13:09:16;1.60;99.90
43043;DHT22;28667;50.758;6.096;2023-01-24T13:11:45;1.60;99.90
43043;DHT22;28667;50.758;6.096;2023-01-24T13:14:20;1.60;99.90
43043;DHT22;28667;50.758;6.096;2023-01-24T13:20:01;1.60;99.90
43043;DHT22;28667;50.758;6.096;2023-01-24T13:22:51;1.60;99.90
43043;DHT22;28667;50.758;6.096;2023-01-24T13:31:22;1.70;99.90
43043;DHT22;28667;50.758;6.096;2023-01-24T13:33:54;1.70;99.90
43043;DHT22;28667;50.758;6.096;2023-01-24T13:36:36;1.80;99.90
43043;DHT22;28667;50.758;6.096;2023-01-24T13:39:04;1.80;99.90
43043;DHT22;28667;50.758;6.096;2023-01-24T13:52:02;1.80;99.90
43043;DHT22;28667;50.758;6.096;2023-01-24T13:54:41;1.80;99.90
43043;DHT22;28667;50.758;6.096;2023-01-24T13:59:40;1.80;99.90
43043;DHT22;28667;50.758;6.096;2023-01-24T14:03:12;1.80;99.90
43043;DHT22;28667;50.758;6.096;2023-01-24T14:08:01;1.80;99.90
43043;DHT22;28667;50.758;6.096;2023-01-24T14:10:38;1.70;99.90
43043;DHT22;28667;50.758;6.096;2023-01-24T14:15:49;1.70;99.90
43043;DHT22;28667;50.758;6.096;2023-01-24T14:18:47;1.70;99.90
43043;DHT22;28667;50.758;6.096;2023-01-24T14:21:19;1.60;99.90
43043;DHT22;28667;50.758;6.096;2023-01-24T14:23:57;1.60;99.90
43043;DHT22;28667;50.758;6.096;2023-01-24T14:26:27;1.50;99.90
43043;DHT22;28667;50.758;6.096;2023-01-24T14:28:59;1.50;99.90
43043;DHT22;28667;50.758;6.096;2023-01-24T14:31:34;1.50;99.90
43043;DHT22;28667;50.758;6.096;2023-01-24T14:34:15;1.50;99.90
43043;DHT22;28667;50.758;6.096;2023-01-24T14:36:43;1.40;99.90
43043;DHT22;28667;50.758;6.096;2023-01-24T14:39:26;1.40;99.90
43043;DHT22;28667;50.758;6.096;2023-01-24T14:42:00;1.40;99.90
43043;DHT22;28667;50.758;6.096;2023-01-24T14:44:29;1.40;99.90
43043;DHT22;28667;50.758;6.096;2023-01-24T14:47:23;1.30;99.90
43043;DHT22;28667;50.758;6.096;2023-01-24T14:49:51;1.30;99.90
43043;DHT22;28667;50.758;6.096;2023-01-24T14:52:26;1.30;99.90
43043;DHT22;28667;50.758;6.096;2023-01-24T14:54:54;1.30;99.90
43043;DHT22;28667;50.758;6.096;2023-01-24T14:57:28;1.30;99.90
43043;DHT22;28667;50.758;6.096;2023-01-24T15:00:05;1.30;99.90
43043;DHT22;28667;50.758;6.096;2023-01-24T15:02:33;1.30;99.90
43043;DHT22;28667;50.758;6.096;2023-01-24T15:04:59;1.40;99.90
43043;DHT22;28667;50.758;6.096;2023-01-24T15:07:25;1.30;99.90
43043;DHT22;28667;50.758;6.096;2023-01-24T15:09:52;1.40;99.90
43043;DHT22;28667;50.758;6.096;2023-01-24T15:12:29;1.40;99.90
43043;DHT22;28667;50.758;6.096;2023-01-24T15:14:57;1.40;99.90
43043;DHT22;28667;50.758;6.096;2023-01-24T15:17:27;1.40;99.90
43043;DHT22;28667;50.758;6.096;2023-01-24T15:20:08;1.30;99.90
43043;DHT22;28667;50.758;6.096;2023-01-24T15:22:38;1.30;99.90
43043;DHT22;28667;50.758;6.096;2023-01-24T15:25:25;1.30;99.90
43043;DHT22;28667;50.758;6.096;2023-01-24T15:27:51;1.30;99.90
43043;DHT22;28667;50.758;6.096;2023-01-24T15:30:23;1.30;99.90
43043;DHT22;28667;50.758;6.096;2023-01-24T15:35:39;1.20;99.90
43043;DHT22;28667;50.758;6.096;2023-01-24T15:38:29;1.20;99.90
43043;DHT22;28667;50.758;6.096;2023-01-24T15:43:39;1.20;99.90
43043;DHT22;28667;50.758;6.096;2023-01-24T15:49:00;1.10;99.90
43043;DHT22;28667;50.758;6.096;2023-01-24T15:51:37;1.10;99.90
43043;DHT22;28667;50.758;6.096;2023-01-24T15:54:12;1.00;99.90
43043;DHT22;28667;50.758;6.096;2023-01-24T15:56:40;1.00;99.90
43043;DHT22;28667;50.758;6.096;2023-01-24T15:59:15;1.00;99.90
43043;DHT22;28667;50.758;6.096;2023-01-24T16:01:41;0.90;99.90
43043;DHT22;28667;50.758;6.096;2023-01-24T16:04:16;0.90;99.90
43043;DHT22;28667;50.758;6.096;2023-01-24T16:06:42;0.90;99.90
43043;DHT22;28667;50.758;6.096;2023-01-24T16:09:08;0.90;99.90
43043;DHT22;28667;50.758;6.096;2023-01-24T16:11:38;0.80;99.90
43043;DHT22;28667;50.758;6.096;2023-01-24T16:14:07;0.90;99.90
43043;DHT22;28667;50.758;6.096;2023-01-24T16:16:35;0.90;99.90
43043;DHT22;28667;50.758;6.096;2023-01-24T16:19:01;0.80;99.90
43043;DHT22;28667;50.758;6.096;2023-01-24T16:21:27;0.80;99.90
43043;DHT22;28667;50.758;6.096;2023-01-24T16:23:53;0.80;99.90
43043;DHT22;28667;50.758;6.096;2023-01-24T16:26:23;0.80;99.90
43043;DHT22;28667;50.758;6.096;2023-01-24T16:28:50;0.80;99.90
43043;DHT22;28667;50.758;6.096;2023-01-24T16:31:16;0.80;99.90
43043;DHT22;28667;50.758;6.096;2023-01-24T16:33:42;0.90;99.90
43043;DHT22;28667;50.758;6.096;2023-01-24T16:36:12;0.80;99.90
43043;DHT22;28667;50.758;6.096;2023-01-24T16:38:38;0.80;99.90
43043;DHT22;28667;50.758;6.096;2023-01-24T16:41:04;0.90;99.90
43043;DHT22;28667;50.758;6.096;2023-01-24T16:43:30;0.80;99.90
43043;DHT22;28667;50.758;6.096;2023-01-24T16:45:55;0.80;99.90
43043;DHT22;28667;50.758;6.096;2023-01-24T16:48:21;0.80;99.90
43043;DHT22;28667;50.758;6.096;2023-01-24T16:50:47;0.80;99.90
43043;DHT22;28667;50.758;6.096;2023-01-24T16:53:13;0.80;99.90
43043;DHT22;28667;50.758;6.096;2023-01-24T16:55:40;0.80;99.90
43043;DHT22;28667;50.758;6.096;2023-01-24T16:58:08;0.90;99.90
43043;DHT22;28667;50.758;6.096;2023-01-24T17:00:34;0.80;99.90
43043;DHT22;28667;50.758;6.096;2023-01-24T17:03:01;0.80;99.90
43043;DHT22;28667;50.758;6.096;2023-01-24T17:05:30;0.80;99.90
43043;DHT22;28667;50.758;6.096;2023-01-24T17:07:56;0.80;99.90
43043;DHT22;28667;50.758;6.096;2023-01-24T17:10:23;0.80;99.90
43043;DHT22;28667;50.758;6.096;2023-01-24T17:12:49;0.80;99.90
43043;DHT22;28667;50.758;6.096;2023-01-24T17:15:15;0.80;99.90
43043;DHT22;28667;50.758;6.096;2023-01-24T17:17:42;0.80;99.90
43043;DHT22;28667;50.758;6.096;2023-01-24T17:20:09;0.80;99.90
43043;DHT22;28667;50.758;6.096;2023-01-24T17:22:36;0.80;99.90
43043;DHT22;28667;50.758;6.096;2023-01-24T17:25:03;0.80;99.90
43043;DHT22;28667;50.758;6.096;2023-01-24T17:27:29;0.80;99.90
43043;DHT22;28667;50.758;6.096;2023-01-24T17:29:55;0.80;99.90
43043;DHT22;28667;50.758;6.096;2023-01-24T17:32:21;0.70;99.90
43043;DHT22;28667;50.758;6.096;2023-01-24T17:34:47;0.80;99.90
43043;DHT22;28667;50.758;6.096;2023-01-24T17:37:13;0.80;99.90
43043;DHT22;28667;50.758;6.096;2023-01-24T17:39:39;0.80;99.90
43043;DHT22;28667;50.758;6.096;2023-01-24T17:42:04;0.80;99.90
43043;DHT22;28667;50.758;6.096;2023-01-24T17:44:30;0.80;99.90
43043;DHT22;28667;50.758;6.096;2023-01-24T17:46:56;0.70;99.90
43043;DHT22;28667;50.758;6.096;2023-01-24T17:49:22;0.80;99.90
43043;DHT22;28667;50.758;6.096;2023-01-24T17:51:48;0.80;99.90
43043;DHT22;28667;50.758;6.096;2023-01-24T17:54:15;0.80;99.90
43043;DHT22;28667;50.758;6.096;2023-01-24T17:56:42;0.80;99.90
43043;DHT22;28667;50.758;6.096;2023-01-24T17:59:08;0.80;99.90
43043;DHT22;28667;50.758;6.096;2023-01-24T18:01:34;0.80;99.90
43043;DHT22;28667;50.758;6.096;2023-01-24T18:03:59;0.80;99.90